Kingsville, MD (21087)

12:58 AM EST on December 08, 2016 (GMT -0500)
Kingsville | | Change Station

Elev 213 ft 39.45 °N, 76.39 °W | Updated 6 minutes ago

Partly Cloudy
Partly Cloudy
29.2 °F
Feels Like 29 °F
N
0.0
Wind Variable Wind from SW
Gusts 0.0 mph

Today
High -- | Low -- °F
--% Chance of Precip.
Yesterday
High -- | Low -- °F
Precip. -- in
Pressure 30.07 in
Visibility 6.0 miles
Clouds Clear
Windchill 29 °F
Dew Point 28 °F
Humidity 95%
Rainfall 0.00 in
Snow Depth Not available.
7:13 AM 4:41 PM
First Quarter, 60% visible
METAR KAPG 080458Z AUTO 00000KT 6SM R22/5000FT BR CLR M01/M02 A3006 RMK AO2 SLP183 T10141016 400991021
Pressure 30.07 in
Visibility 6.0 miles
Clouds Clear
Windchill 29 °F
Dew Point 28 °F
Humidity 95%
Rainfall 0.00 in
Snow Depth Not available.
7:13 AM 4:41 PM
First Quarter, 60% visible
METAR KAPG 080458Z AUTO 00000KT 6SM R22/5000FT BR CLR M01/M02 A3006 RMK AO2 SLP183 T10141016 400991021

10-Day Weather Forecast

Almanac

Astronomy

Dec. 08, 2016 Rise Set
Actual Time
Civil Twilight
Nautical Twilight
Astronomical Twilight
Moon
Length of Visible Light
Length of Day
Tomorrow will be .
, % of the Moon is Illuminated

Today's Extremes

State Highs State Lows

Community

WunderPhotos

Upload Photos

1,956,259 photos uploaded!

WunderBlog® & News

Nearby

Air Quality

  Air Quality AQ Index Pollutant
Not available.

Snow Depth

Station Depth Elevation

Earthquake Activity

City Distance Mag. Time & Date
Minimum magnitude displayed is 2.5.

Coastal Water Temperatures

Place Temperature

Stations

Nearby Weather Stations

Station Location Temp. Windchill Dew Point Humidity Wind Precip. Elev Updated Type
                   

Watches & Warnings

There are currently no watches in effect.